createdAt,value
2024-03-24T00:00:06.246Z,11.00
2024-03-24T00:00:38.102Z,11.00
2024-03-24T00:01:08.745Z,11.00
2024-03-24T00:01:39.338Z,11.00
2024-03-24T00:02:10.921Z,11.00
2024-03-24T00:02:41.477Z,10.33
2024-03-24T00:03:12.142Z,10.00
2024-03-24T00:03:42.715Z,10.00
2024-03-24T00:04:13.693Z,10.00
2024-03-24T00:04:44.251Z,10.00
2024-03-24T00:05:14.858Z,10.00
2024-03-24T00:05:45.447Z,10.00
2024-03-24T00:06:16.015Z,10.00
2024-03-24T00:06:47.159Z,10.00
2024-03-24T00:07:17.737Z,10.00
2024-03-24T00:07:48.306Z,10.00
2024-03-24T00:08:18.861Z,10.00
2024-03-24T00:08:49.416Z,10.00
2024-03-24T00:09:20.008Z,10.00
2024-03-24T00:09:51.990Z,10.00
2024-03-24T00:10:22.541Z,10.00
2024-03-24T00:10:53.130Z,10.00
2024-03-24T00:11:23.733Z,10.00
2024-03-24T00:11:55.320Z,10.00
2024-03-24T00:12:25.872Z,10.00
2024-03-24T00:12:57.890Z,10.00
2024-03-24T00:13:28.466Z,10.00
2024-03-24T00:13:59.052Z,10.00
2024-03-24T00:14:29.606Z,10.00
2024-03-24T00:15:00.278Z,10.00
2024-03-24T00:15:30.885Z,10.00
2024-03-24T00:16:02.252Z,10.00
2024-03-24T00:16:32.843Z,10.00
2024-03-24T00:17:03.424Z,10.00
2024-03-24T00:17:33.996Z,10.00
2024-03-24T00:18:04.561Z,10.00
2024-03-24T00:18:35.164Z,10.00
2024-03-24T00:19:05.760Z,10.33
2024-03-24T00:19:37.377Z,11.00
2024-03-24T00:20:08.069Z,11.33
2024-03-24T00:20:38.649Z,12.00
2024-03-24T00:21:09.203Z,13.00
2024-03-24T00:21:40.129Z,13.33
2024-03-24T00:22:10.687Z,14.00
2024-03-24T00:22:41.244Z,14.00
2024-03-24T00:23:11.817Z,14.00
2024-03-24T00:23:45.164Z,14.00
2024-03-24T00:24:15.713Z,14.00
2024-03-24T00:24:48.739Z,14.00
2024-03-24T00:25:19.299Z,14.00
2024-03-24T00:25:50.320Z,14.00
2024-03-24T00:26:21.292Z,14.00
2024-03-24T00:26:51.851Z,14.00
2024-03-24T00:27:22.404Z,14.00
2024-03-24T00:27:52.962Z,15.00
2024-03-24T00:28:23.515Z,15.00
2024-03-24T00:28:54.127Z,15.00
2024-03-24T00:29:24.676Z,15.00
2024-03-24T00:29:55.267Z,15.00
2024-03-24T00:30:26.229Z,15.00
2024-03-24T00:30:56.797Z,15.00
2024-03-24T00:31:27.363Z,15.00
2024-03-24T00:31:57.931Z,15.00
2024-03-24T00:32:28.477Z,15.00
2024-03-24T00:32:59.040Z,14.67
2024-03-24T00:33:30.098Z,14.00
2024-03-24T00:34:00.650Z,14.00
2024-03-24T00:34:32.716Z,14.00
2024-03-24T00:35:03.323Z,14.00
2024-03-24T00:35:33.970Z,14.00
2024-03-24T00:36:04.683Z,14.00
2024-03-24T00:36:35.278Z,14.00
2024-03-24T00:37:05.852Z,14.00
2024-03-24T00:37:36.430Z,14.00
2024-03-24T00:38:06.996Z,14.00
2024-03-24T00:38:37.558Z,14.00
2024-03-24T00:39:08.117Z,14.00
2024-03-24T00:39:39.509Z,14.00
2024-03-24T00:40:11.179Z,14.00
2024-03-24T00:40:41.758Z,14.00
2024-03-24T00:41:12.304Z,14.00
2024-03-24T00:41:42.851Z,14.00
2024-03-24T00:42:13.398Z,14.67
2024-03-24T00:42:44.035Z,15.00
2024-03-24T00:43:14.907Z,15.00
2024-03-24T00:43:45.767Z,15.00
2024-03-24T00:44:16.338Z,15.00
2024-03-24T00:44:46.898Z,15.00
2024-03-24T00:45:17.456Z,15.00
2024-03-24T00:45:48.599Z,15.00
2024-03-24T00:46:19.151Z,15.00
2024-03-24T00:46:49.709Z,15.00
2024-03-24T00:47:20.250Z,15.00
2024-03-24T00:47:51.787Z,15.00
2024-03-24T00:48:22.337Z,15.00
2024-03-24T00:48:53.148Z,15.00
2024-03-24T00:49:23.701Z,15.00
2024-03-24T00:49:54.739Z,15.00
2024-03-24T00:50:25.325Z,15.00
2024-03-24T00:50:55.884Z,15.00
2024-03-24T00:51:26.886Z,15.00
2024-03-24T00:51:57.438Z,15.00
2024-03-24T00:52:27.996Z,15.00
2024-03-24T00:52:58.599Z,15.00
2024-03-24T00:53:29.202Z,15.00
2024-03-24T00:53:59.760Z,15.00
2024-03-24T00:54:30.312Z,15.00
2024-03-24T00:55:01.186Z,15.00
2024-03-24T00:55:31.763Z,16.00
2024-03-24T00:56:02.372Z,16.00
2024-03-24T00:56:32.933Z,16.00
2024-03-24T00:57:03.530Z,16.00
2024-03-24T00:57:34.111Z,16.00
2024-03-24T00:58:04.666Z,16.00
2024-03-24T00:58:35.230Z,16.00
2024-03-24T00:59:05.808Z,16.00
2024-03-24T00:59:36.355Z,16.00
2024-03-24T01:00:07.102Z,16.00
2024-03-24T01:00:37.747Z,16.00
2024-03-24T01:01:08.750Z,15.00
2024-03-24T01:01:39.344Z,15.00
2024-03-24T01:02:09.900Z,15.00
2024-03-24T01:02:40.457Z,15.00
2024-03-24T01:03:11.039Z,14.00
2024-03-24T01:03:42.786Z,14.00
2024-03-24T01:04:13.400Z,14.00
2024-03-24T01:04:43.981Z,14.00
2024-03-24T01:05:14.576Z,14.00
2024-03-24T01:05:47.589Z,14.00
2024-03-24T01:06:18.152Z,13.00
2024-03-24T01:06:48.708Z,13.00
2024-03-24T01:07:19.259Z,13.00
2024-03-24T01:07:50.046Z,13.00
2024-03-24T01:08:21.234Z,12.33
2024-03-24T01:08:51.873Z,12.00
2024-03-24T01:09:22.495Z,12.00
2024-03-24T01:09:54.844Z,12.00
2024-03-24T01:10:26.852Z,12.00
2024-03-24T01:11:02.978Z,11.00
2024-03-24T01:11:33.541Z,11.00
2024-03-24T01:12:04.317Z,11.00
2024-03-24T01:12:34.889Z,11.00
2024-03-24T01:13:05.463Z,11.00
2024-03-24T01:13:36.021Z,12.00
2024-03-24T01:14:06.915Z,12.00
2024-03-24T01:14:37.479Z,12.00
2024-03-24T01:15:10.164Z,12.33
2024-03-24T01:15:46.758Z,13.00
2024-03-24T01:16:17.317Z,13.33
2024-03-24T01:16:47.912Z,14.33
2024-03-24T01:17:19.541Z,15.67
2024-03-24T01:17:50.115Z,16.67
2024-03-24T01:18:20.670Z,18.00
2024-03-24T01:18:51.249Z,19.00
2024-03-24T01:19:21.820Z,19.33
2024-03-24T01:19:52.458Z,20.00
2024-03-24T01:20:23.065Z,20.00
2024-03-24T01:20:53.617Z,20.00
2024-03-24T01:21:24.461Z,20.33
2024-03-24T01:21:55.018Z,21.00
2024-03-24T01:22:25.569Z,21.33
2024-03-24T01:22:56.148Z,22.00
2024-03-24T01:23:26.705Z,22.67
2024-03-24T01:23:58.919Z,23.00
2024-03-24T01:24:29.478Z,24.00
2024-03-24T01:25:00.033Z,24.00
2024-03-24T01:25:31.166Z,24.33
2024-03-24T01:26:01.721Z,25.00
2024-03-24T01:26:32.294Z,25.00
2024-03-24T01:27:03.038Z,25.00
2024-03-24T01:27:33.888Z,25.00
2024-03-24T01:28:04.548Z,25.00
2024-03-24T01:28:35.150Z,25.00
2024-03-24T01:29:07.131Z,25.00
2024-03-24T01:29:37.737Z,25.00
2024-03-24T01:30:09.746Z,25.00
2024-03-24T01:30:40.305Z,25.00
2024-03-24T01:31:10.942Z,25.00
2024-03-24T01:31:41.539Z,25.00
2024-03-24T01:32:12.088Z,25.00
2024-03-24T01:32:42.693Z,25.00
2024-03-24T01:33:13.669Z,25.00
2024-03-24T01:33:44.224Z,25.00
2024-03-24T01:34:14.774Z,24.00
2024-03-24T01:34:45.329Z,24.00
2024-03-24T01:35:15.878Z,24.00
2024-03-24T01:35:46.923Z,24.00
2024-03-24T01:36:17.609Z,24.00
2024-03-24T01:36:48.226Z,24.00
2024-03-24T01:37:20.446Z,24.00
2024-03-24T01:37:52.222Z,24.00
2024-03-24T01:38:22.796Z,24.00
2024-03-24T01:38:53.345Z,24.00
2024-03-24T01:39:23.960Z,24.00
2024-03-24T01:40:00.221Z,24.00
2024-03-24T01:40:30.830Z,23.00
2024-03-24T01:41:04.447Z,23.00
2024-03-24T01:41:35.280Z,22.33
2024-03-24T01:42:05.854Z,22.00
2024-03-24T01:42:39.373Z,22.00
2024-03-24T01:43:11.314Z,21.33
2024-03-24T01:43:41.895Z,21.00
2024-03-24T01:44:13.692Z,21.00
2024-03-24T01:44:46.832Z,20.00
2024-03-24T01:45:17.897Z,20.00
2024-03-24T01:45:48.458Z,20.00
2024-03-24T01:46:19.089Z,20.00
2024-03-24T01:46:50.713Z,20.00
2024-03-24T01:47:21.402Z,20.33
2024-03-24T01:47:51.965Z,21.00
2024-03-24T01:48:23.021Z,21.00
2024-03-24T01:48:53.700Z,21.00
2024-03-24T01:49:24.375Z,21.33
2024-03-24T01:49:55.000Z,22.00
2024-03-24T01:50:26.590Z,22.00
2024-03-24T01:50:57.426Z,22.00
2024-03-24T01:51:28.803Z,22.00
2024-03-24T01:51:59.556Z,22.00
2024-03-24T01:52:30.789Z,22.00
2024-03-24T01:53:01.909Z,22.00
2024-03-24T01:53:32.539Z,22.00
2024-03-24T01:54:03.088Z,22.00
2024-03-24T01:54:36.670Z,22.00
2024-03-24T01:55:07.874Z,22.00
2024-03-24T01:55:39.860Z,22.00
2024-03-24T01:56:10.580Z,22.00
2024-03-24T01:56:41.399Z,22.00
2024-03-24T01:57:11.952Z,22.00
2024-03-24T01:57:43.145Z,22.00
2024-03-24T01:58:13.805Z,22.00
2024-03-24T01:58:44.374Z,22.00
2024-03-24T01:59:15.987Z,22.00
2024-03-24T01:59:48.874Z,22.00
2024-03-24T02:00:20.515Z,22.00
2024-03-24T02:00:51.061Z,22.00
2024-03-24T02:01:22.475Z,22.00
2024-03-24T02:01:53.605Z,22.00
2024-03-24T02:02:24.574Z,22.00
2024-03-24T02:02:55.150Z,22.00
2024-03-24T02:03:27.476Z,22.00
2024-03-24T02:03:58.024Z,22.00
2024-03-24T02:04:28.590Z,22.00
2024-03-24T02:04:59.161Z,22.00
2024-03-24T02:05:30.535Z,22.00
2024-03-24T02:06:02.171Z,22.00
2024-03-24T02:06:32.726Z,22.00
2024-03-24T02:07:04.470Z,22.33
2024-03-24T02:07:36.022Z,23.00
2024-03-24T02:08:07.876Z,24.33
2024-03-24T02:08:38.430Z,25.00
2024-03-24T02:09:09.450Z,26.00
2024-03-24T02:09:40.073Z,26.67
2024-03-24T02:10:10.885Z,27.33
2024-03-24T02:10:41.769Z,28.00
2024-03-24T02:11:12.384Z,28.00
2024-03-24T02:11:43.337Z,28.00
2024-03-24T02:12:13.880Z,28.00
2024-03-24T02:12:44.782Z,28.00
2024-03-24T02:13:15.420Z,28.00
2024-03-24T02:13:45.987Z,27.33
2024-03-24T02:14:16.538Z,27.00
2024-03-24T02:14:47.093Z,27.00
2024-03-24T02:15:17.676Z,26.33
2024-03-24T02:15:51.906Z,26.00
2024-03-24T02:16:22.454Z,25.33
2024-03-24T02:16:53.013Z,25.00
2024-03-24T02:17:23.628Z,25.00
2024-03-24T02:17:57.838Z,25.00
2024-03-24T02:18:30.852Z,25.00
2024-03-24T02:19:04.141Z,25.00
2024-03-24T02:19:34.696Z,26.00
2024-03-24T02:20:05.562Z,26.00
2024-03-24T02:20:36.129Z,27.00
2024-03-24T02:21:07.809Z,27.33
2024-03-24T02:21:38.389Z,28.00
2024-03-24T02:22:10.025Z,28.67
2024-03-24T02:22:41.988Z,29.00
2024-03-24T02:23:12.549Z,29.00
2024-03-24T02:23:44.924Z,29.00
2024-03-24T02:24:15.545Z,29.00
2024-03-24T02:24:46.119Z,29.00
2024-03-24T02:25:17.826Z,29.00
2024-03-24T02:25:48.415Z,29.00
2024-03-24T02:26:18.966Z,29.00
2024-03-24T02:26:50.571Z,29.00
2024-03-24T02:27:22.288Z,28.00
2024-03-24T02:27:52.894Z,28.00
2024-03-24T02:28:23.451Z,28.00
2024-03-24T02:28:58.260Z,28.00
2024-03-24T02:29:28.814Z,28.00
2024-03-24T02:29:59.374Z,28.00
2024-03-24T02:30:29.923Z,28.00
2024-03-24T02:31:00.836Z,28.00
2024-03-24T02:31:31.680Z,28.00
2024-03-24T02:32:02.395Z,27.67
2024-03-24T02:32:32.965Z,27.00
2024-03-24T02:33:03.695Z,27.00
2024-03-24T02:33:34.246Z,27.00
2024-03-24T02:34:04.806Z,26.67
2024-03-24T02:34:35.363Z,26.00
2024-03-24T02:35:05.980Z,26.00
2024-03-24T02:35:38.062Z,26.00
2024-03-24T02:36:08.690Z,26.00
2024-03-24T02:36:39.283Z,26.00
2024-03-24T02:37:09.839Z,26.00
2024-03-24T02:37:41.069Z,26.33
2024-03-24T02:38:11.634Z,27.00
2024-03-24T02:38:42.176Z,27.00
2024-03-24T02:39:12.723Z,27.00
2024-03-24T02:39:43.556Z,28.00
2024-03-24T02:40:14.278Z,28.00
2024-03-24T02:40:49.189Z,28.67
2024-03-24T02:41:19.901Z,29.67
2024-03-24T02:41:50.583Z,31.67
2024-03-24T02:42:21.148Z,33.67
2024-03-24T02:42:51.701Z,35.33
2024-03-24T02:43:23.647Z,37.67
2024-03-24T02:43:54.447Z,39.00
2024-03-24T02:44:28.368Z,39.00
2024-03-24T02:44:59.338Z,39.00
2024-03-24T02:45:29.909Z,38.33
2024-03-24T02:46:00.471Z,38.00
2024-03-24T02:46:32.226Z,38.00
2024-03-24T02:47:03.857Z,37.67
2024-03-24T02:47:34.549Z,37.00
2024-03-24T02:48:05.743Z,37.00
2024-03-24T02:48:36.323Z,36.67
2024-03-24T02:49:09.691Z,36.00
2024-03-24T02:49:40.271Z,36.00
2024-03-24T02:50:10.885Z,36.00
2024-03-24T02:50:41.448Z,36.00
2024-03-24T02:51:13.108Z,36.00
2024-03-24T02:51:43.822Z,36.00
2024-03-24T02:52:16.084Z,36.00
2024-03-24T02:52:51.948Z,36.00
2024-03-24T02:53:22.498Z,36.00
2024-03-24T02:53:53.048Z,36.00
2024-03-24T02:54:23.715Z,36.00
2024-03-24T02:54:56.499Z,36.00
2024-03-24T02:55:29.679Z,36.00
2024-03-24T02:56:00.247Z,36.00
2024-03-24T02:56:30.804Z,36.00
2024-03-24T02:57:02.401Z,36.67
2024-03-24T02:57:36.049Z,37.00
2024-03-24T02:58:06.758Z,37.00
2024-03-24T02:58:37.327Z,37.33
2024-03-24T02:59:07.913Z,38.00
2024-03-24T02:59:38.481Z,38.33
2024-03-24T03:00:09.315Z,39.33
2024-03-24T03:00:39.912Z,40.00
2024-03-24T03:01:10.548Z,40.67
2024-03-24T03:01:41.156Z,41.00
2024-03-24T03:02:11.896Z,41.00
2024-03-24T03:02:42.461Z,41.00
2024-03-24T03:03:13.018Z,41.67
2024-03-24T03:03:46.112Z,43.33
2024-03-24T03:04:16.668Z,45.67
2024-03-24T03:04:47.235Z,47.67
2024-03-24T03:05:17.805Z,48.33
2024-03-24T03:05:48.920Z,49.00
2024-03-24T03:06:20.383Z,48.67
2024-03-24T03:06:53.279Z,48.00
2024-03-24T03:07:23.845Z,48.00
2024-03-24T03:07:55.228Z,48.00
2024-03-24T03:08:25.822Z,47.00
2024-03-24T03:08:56.401Z,47.00
2024-03-24T03:09:26.959Z,47.00
2024-03-24T03:09:58.230Z,46.67
2024-03-24T03:10:31.933Z,46.00
2024-03-24T03:11:02.485Z,45.67
2024-03-24T03:11:33.053Z,45.00
2024-03-24T03:12:04.026Z,44.00
2024-03-24T03:12:38.100Z,43.00
2024-03-24T03:13:08.702Z,42.67
2024-03-24T03:13:40.195Z,42.00
2024-03-24T03:14:10.857Z,42.00
2024-03-24T03:14:41.423Z,42.00
2024-03-24T03:15:15.357Z,42.00
2024-03-24T03:15:45.963Z,42.00
2024-03-24T03:16:16.522Z,42.00
2024-03-24T03:16:47.078Z,42.00
2024-03-24T03:17:17.643Z,42.00
2024-03-24T03:17:48.190Z,42.00
2024-03-24T03:18:19.745Z,42.00
2024-03-24T03:18:51.584Z,42.00
2024-03-24T03:19:24.093Z,42.00
2024-03-24T03:19:54.643Z,41.67
2024-03-24T03:20:25.693Z,41.00
2024-03-24T03:20:56.272Z,41.00
2024-03-24T03:21:26.828Z,41.00
2024-03-24T03:21:57.413Z,40.00
2024-03-24T03:22:27.970Z,40.00
2024-03-24T03:22:58.524Z,40.00
2024-03-24T03:23:29.079Z,39.67
2024-03-24T03:23:59.625Z,39.00
2024-03-24T03:24:30.276Z,39.00
2024-03-24T03:25:00.835Z,38.33
2024-03-24T03:25:31.398Z,38.00
2024-03-24T03:26:03.333Z,38.00
2024-03-24T03:26:35.187Z,38.00
2024-03-24T03:27:05.739Z,37.33
2024-03-24T03:27:36.458Z,37.00
2024-03-24T03:28:07.037Z,37.00
2024-03-24T03:28:37.583Z,36.67
2024-03-24T03:29:08.132Z,36.00
2024-03-24T03:29:38.725Z,36.00
2024-03-24T03:30:10.824Z,35.33
2024-03-24T03:30:42.387Z,35.00
2024-03-24T03:31:13.214Z,35.00
2024-03-24T03:31:43.792Z,35.00
2024-03-24T03:32:14.374Z,35.00
2024-03-24T03:32:44.926Z,35.00
2024-03-24T03:33:15.485Z,35.00
2024-03-24T03:33:46.060Z,35.00
2024-03-24T03:34:16.774Z,36.00
2024-03-24T03:34:47.339Z,37.33
2024-03-24T03:35:17.914Z,38.33
2024-03-24T03:35:48.482Z,39.33
2024-03-24T03:36:19.032Z,40.00
2024-03-24T03:36:49.871Z,40.00
2024-03-24T03:37:21.123Z,40.33
2024-03-24T03:37:51.681Z,41.00
2024-03-24T03:38:22.254Z,41.33
2024-03-24T03:38:52.982Z,42.67
2024-03-24T03:39:23.696Z,44.33
2024-03-24T03:39:54.253Z,46.33
2024-03-24T03:40:25.790Z,48.33
2024-03-24T03:40:56.351Z,50.33
2024-03-24T03:41:26.913Z,51.00
2024-03-24T03:41:59.255Z,51.00
2024-03-24T03:42:29.942Z,51.00
2024-03-24T03:43:00.580Z,50.67
2024-03-24T03:43:31.508Z,50.00
2024-03-24T03:44:02.062Z,49.67
2024-03-24T03:44:32.617Z,49.00
2024-03-24T03:45:03.309Z,49.00
2024-03-24T03:45:33.953Z,48.33
2024-03-24T03:46:04.542Z,48.00
2024-03-24T03:46:35.119Z,47.00
2024-03-24T03:47:05.849Z,47.00
2024-03-24T03:47:36.483Z,46.33
2024-03-24T03:48:07.060Z,46.00
2024-03-24T03:48:42.841Z,45.67
2024-03-24T03:49:15.236Z,45.00
2024-03-24T03:49:52.050Z,44.00
2024-03-24T03:50:23.709Z,42.67
2024-03-24T03:50:54.972Z,41.00
2024-03-24T03:51:37.104Z,39.00
2024-03-24T03:52:07.743Z,37.00
2024-03-24T03:52:38.319Z,37.00
2024-03-24T03:53:11.018Z,36.67
2024-03-24T03:53:42.880Z,36.00
2024-03-24T03:54:14.872Z,35.67
2024-03-24T03:54:45.431Z,35.00
2024-03-24T03:55:17.029Z,34.00
2024-03-24T03:55:51.265Z,34.00
2024-03-24T03:56:21.818Z,34.00
2024-03-24T03:56:52.421Z,34.00
2024-03-24T03:57:23.051Z,34.33
2024-03-24T03:57:55.244Z,35.00
2024-03-24T03:58:25.792Z,35.00
2024-03-24T03:58:59.080Z,35.00
2024-03-24T03:59:29.629Z,35.00
2024-03-24T04:00:02.503Z,35.00
2024-03-24T04:00:33.052Z,35.00
2024-03-24T04:01:04.879Z,35.00
2024-03-24T04:01:35.540Z,35.00
2024-03-24T04:02:06.411Z,34.33
2024-03-24T04:02:38.506Z,34.00
2024-03-24T04:03:09.262Z,34.00
2024-03-24T04:03:39.811Z,34.00
2024-03-24T04:04:10.781Z,34.67
2024-03-24T04:04:41.497Z,35.33
2024-03-24T04:05:15.500Z,36.67
2024-03-24T04:05:48.999Z,38.67
2024-03-24T04:06:20.007Z,40.67
2024-03-24T04:06:51.603Z,42.33
2024-03-24T04:07:24.079Z,43.67
2024-03-24T04:07:55.034Z,45.00
2024-03-24T04:08:25.595Z,45.00
2024-03-24T04:08:56.491Z,45.00
2024-03-24T04:09:27.047Z,44.33
2024-03-24T04:09:57.590Z,44.00
2024-03-24T04:10:29.532Z,43.00
2024-03-24T04:11:01.291Z,42.33
2024-03-24T04:11:31.859Z,41.33
2024-03-24T04:12:03.511Z,41.00
2024-03-24T04:12:34.353Z,40.00
2024-03-24T04:13:05.020Z,40.00
2024-03-24T04:13:35.575Z,40.00
2024-03-24T04:14:06.153Z,40.00
2024-03-24T04:14:38.139Z,39.00
2024-03-24T04:15:08.996Z,39.00
2024-03-24T04:15:40.273Z,39.00
2024-03-24T04:16:10.876Z,39.00
2024-03-24T04:16:41.469Z,39.00
2024-03-24T04:17:12.028Z,38.33
2024-03-24T04:17:42.614Z,38.00
2024-03-24T04:18:13.202Z,37.00
2024-03-24T04:18:47.918Z,36.67
2024-03-24T04:19:18.491Z,36.00
2024-03-24T04:19:49.046Z,35.33
2024-03-24T04:20:19.597Z,35.00
2024-03-24T04:20:50.170Z,34.67
2024-03-24T04:21:20.835Z,34.00
2024-03-24T04:21:52.140Z,33.33
2024-03-24T04:22:22.966Z,33.00
2024-03-24T04:22:53.855Z,33.00
2024-03-24T04:23:24.417Z,33.00
2024-03-24T04:23:55.986Z,33.00
2024-03-24T04:24:27.668Z,33.00
2024-03-24T04:24:58.215Z,33.00
2024-03-24T04:25:29.399Z,33.00
2024-03-24T04:26:00.049Z,33.00
2024-03-24T04:26:31.718Z,32.00
2024-03-24T04:27:05.474Z,32.00
2024-03-24T04:27:36.183Z,31.00
2024-03-24T04:28:06.753Z,30.67
2024-03-24T04:28:38.320Z,30.00
2024-03-24T04:29:09.927Z,30.00
2024-03-24T04:29:40.941Z,30.00
2024-03-24T04:30:13.057Z,30.00
2024-03-24T04:30:43.629Z,33.33
2024-03-24T04:31:14.202Z,53.33
2024-03-24T04:31:44.774Z,61.33
2024-03-24T04:32:15.335Z,59.33
2024-03-24T04:32:46.264Z,57.00
2024-03-24T04:33:16.823Z,54.33
2024-03-24T04:33:47.423Z,52.33
2024-03-24T04:34:18.039Z,51.00
2024-03-24T04:34:48.621Z,50.00
2024-03-24T04:35:19.184Z,49.33
2024-03-24T04:35:49.749Z,49.00
2024-03-24T04:36:20.309Z,48.67
2024-03-24T04:36:50.857Z,48.00
2024-03-24T04:37:21.432Z,48.00
2024-03-24T04:37:52.646Z,47.00
2024-03-24T04:38:23.479Z,46.67
2024-03-24T04:38:54.995Z,45.00
2024-03-24T04:39:25.813Z,42.67
2024-03-24T04:39:56.404Z,39.33
2024-03-24T04:40:26.955Z,36.67
2024-03-24T04:40:57.531Z,34.67
2024-03-24T04:41:28.169Z,33.33
2024-03-24T04:41:59.722Z,31.33
2024-03-24T04:42:30.283Z,29.67
2024-03-24T04:43:01.805Z,27.67
2024-03-24T04:43:32.364Z,26.33
2024-03-24T04:44:02.945Z,25.33
2024-03-24T04:44:33.573Z,25.00
2024-03-24T04:45:04.321Z,25.00
2024-03-24T04:45:35.741Z,25.33
2024-03-24T04:46:06.316Z,26.00
2024-03-24T04:46:36.891Z,26.67
2024-03-24T04:47:08.006Z,27.00
2024-03-24T04:47:38.598Z,27.67
2024-03-24T04:48:09.432Z,28.33
2024-03-24T04:48:39.987Z,29.00
2024-03-24T04:49:10.584Z,29.67
2024-03-24T04:49:41.141Z,30.00
2024-03-24T04:50:11.685Z,30.00
2024-03-24T04:50:43.045Z,30.00
2024-03-24T04:51:13.608Z,30.00
2024-03-24T04:51:44.230Z,30.00
2024-03-24T04:52:14.917Z,30.00
2024-03-24T04:52:45.925Z,30.00
2024-03-24T04:53:18.007Z,30.00
2024-03-24T04:53:48.558Z,30.00
2024-03-24T04:54:19.140Z,30.00
2024-03-24T04:54:49.711Z,30.00
2024-03-24T04:55:20.318Z,30.00
2024-03-24T04:55:51.448Z,29.67
2024-03-24T04:56:22.347Z,29.00
2024-03-24T04:56:52.955Z,29.00
2024-03-24T04:57:23.515Z,28.00
2024-03-24T04:57:54.065Z,28.00
2024-03-24T04:58:24.625Z,27.67
2024-03-24T04:58:55.201Z,27.00
2024-03-24T04:59:25.766Z,27.00
2024-03-24T04:59:56.348Z,27.00
2024-03-24T05:00:26.908Z,27.00
2024-03-24T05:00:57.471Z,27.67
2024-03-24T05:01:28.027Z,28.00
2024-03-24T05:01:58.591Z,28.00
2024-03-24T05:02:29.163Z,29.00
2024-03-24T05:02:59.914Z,29.00
2024-03-24T05:03:30.465Z,29.67
2024-03-24T05:04:01.022Z,30.00
2024-03-24T05:04:31.595Z,30.00
2024-03-24T05:05:02.447Z,30.00
2024-03-24T05:05:33.306Z,30.00
2024-03-24T05:06:03.856Z,30.00
2024-03-24T05:06:34.423Z,30.00
2024-03-24T05:07:06.156Z,29.33
2024-03-24T05:07:36.737Z,29.00
2024-03-24T05:08:07.455Z,29.00
2024-03-24T05:08:38.010Z,28.33
2024-03-24T05:09:08.615Z,28.00
2024-03-24T05:09:39.207Z,27.33
2024-03-24T05:10:10.016Z,27.00
2024-03-24T05:10:41.656Z,26.00
2024-03-24T05:11:12.292Z,25.33
2024-03-24T05:11:42.841Z,24.00
2024-03-24T05:12:13.400Z,23.00
2024-03-24T05:12:43.995Z,22.33
2024-03-24T05:13:14.587Z,21.33
2024-03-24T05:13:48.239Z,21.00
2024-03-24T05:14:18.863Z,20.00
2024-03-24T05:14:49.421Z,20.00
2024-03-24T05:15:19.986Z,20.00
2024-03-24T05:15:52.946Z,20.00
2024-03-24T05:16:24.776Z,20.00
2024-03-24T05:16:55.369Z,20.00
2024-03-24T05:17:25.944Z,20.00
2024-03-24T05:17:56.508Z,20.00
2024-03-24T05:18:27.526Z,20.00
2024-03-24T05:19:00.247Z,20.00
2024-03-24T05:19:32.596Z,20.00
2024-03-24T05:20:03.675Z,19.00
2024-03-24T05:20:35.191Z,19.00
2024-03-24T05:21:06.095Z,19.00
2024-03-24T05:21:37.883Z,19.00
2024-03-24T05:22:09.786Z,19.00
2024-03-24T05:22:40.902Z,19.00
2024-03-24T05:23:19.106Z,19.00
2024-03-24T05:23:49.661Z,19.00
2024-03-24T05:24:20.313Z,19.00
2024-03-24T05:24:50.876Z,19.00
2024-03-24T05:25:22.596Z,19.00
2024-03-24T05:25:53.209Z,19.33
2024-03-24T05:26:25.650Z,20.00
2024-03-24T05:26:58.234Z,20.00
2024-03-24T05:27:29.600Z,20.00
2024-03-24T05:28:03.485Z,20.00
2024-03-24T05:28:42.254Z,20.33
2024-03-24T05:29:17.631Z,21.00
2024-03-24T05:29:48.204Z,21.00
2024-03-24T05:30:18.778Z,21.33
2024-03-24T05:30:52.988Z,22.00
2024-03-24T05:31:23.545Z,23.00
2024-03-24T05:32:02.467Z,24.00
2024-03-24T05:32:33.933Z,25.00
2024-03-24T05:33:04.488Z,25.67
2024-03-24T05:33:35.069Z,26.67
2024-03-24T05:34:06.061Z,28.33
2024-03-24T05:34:36.712Z,29.67
2024-03-24T05:35:07.322Z,30.67
2024-03-24T05:35:37.886Z,32.00
2024-03-24T05:36:09.052Z,33.00
2024-03-24T05:36:39.607Z,33.00
2024-03-24T05:37:10.175Z,34.00
2024-03-24T05:37:40.748Z,34.00
2024-03-24T05:38:11.645Z,34.00
2024-03-24T05:38:42.581Z,34.00
2024-03-24T05:39:13.189Z,34.00
2024-03-24T05:39:46.773Z,34.00
2024-03-24T05:40:17.348Z,34.00
2024-03-24T05:40:56.021Z,34.00
2024-03-24T05:41:28.095Z,33.33
2024-03-24T05:41:59.668Z,33.00
2024-03-24T05:42:30.637Z,33.00
2024-03-24T05:43:01.190Z,33.00
2024-03-24T05:43:31.743Z,33.00
2024-03-24T05:44:02.301Z,33.00
2024-03-24T05:44:32.896Z,32.33
2024-03-24T05:45:03.663Z,32.00
2024-03-24T05:45:37.229Z,31.33
2024-03-24T05:46:07.951Z,30.67
2024-03-24T05:46:38.567Z,30.00
2024-03-24T05:47:09.111Z,29.67
2024-03-24T05:47:39.930Z,29.00
2024-03-24T05:48:10.499Z,29.00
2024-03-24T05:48:41.054Z,29.00
2024-03-24T05:49:11.632Z,28.33
2024-03-24T05:49:42.180Z,28.00
2024-03-24T05:50:12.775Z,28.00
2024-03-24T05:50:43.615Z,28.00
2024-03-24T05:51:14.187Z,28.00
2024-03-24T05:51:44.919Z,28.00
2024-03-24T05:52:16.908Z,28.00
2024-03-24T05:52:49.267Z,28.33
2024-03-24T05:53:19.916Z,29.00
2024-03-24T05:53:50.464Z,30.00
2024-03-24T05:54:21.060Z,31.33
2024-03-24T05:54:51.619Z,34.00
2024-03-24T05:55:22.182Z,37.33
2024-03-24T05:55:52.814Z,40.67
2024-03-24T05:56:25.523Z,44.33
2024-03-24T05:56:57.793Z,49.00
2024-03-24T05:57:28.370Z,53.67
2024-03-24T05:57:58.931Z,54.00
2024-03-24T05:58:29.787Z,53.33
2024-03-24T05:59:00.462Z,52.33
2024-03-24T05:59:31.011Z,51.33
2024-03-24T06:00:01.859Z,50.33
2024-03-24T06:00:32.447Z,49.67
2024-03-24T06:01:03.571Z,48.67
2024-03-24T06:01:35.584Z,48.00
2024-03-24T06:02:07.244Z,47.33
2024-03-24T06:02:37.800Z,47.00
2024-03-24T06:03:08.355Z,46.67
2024-03-24T06:03:39.982Z,46.00
2024-03-24T06:04:10.561Z,46.00
2024-03-24T06:04:41.234Z,45.33
2024-03-24T06:05:13.018Z,45.00
2024-03-24T06:05:43.589Z,45.00
2024-03-24T06:06:14.156Z,45.00
2024-03-24T06:06:44.761Z,44.33
2024-03-24T06:07:15.311Z,44.00
2024-03-24T06:07:45.864Z,44.00
2024-03-24T06:08:17.301Z,44.00
2024-03-24T06:08:48.792Z,44.00
2024-03-24T06:09:19.366Z,44.00
2024-03-24T06:09:49.982Z,44.00
2024-03-24T06:10:20.564Z,44.00
2024-03-24T06:10:51.183Z,44.00
2024-03-24T06:11:23.270Z,44.00
2024-03-24T06:11:54.002Z,44.00
2024-03-24T06:12:24.982Z,44.33
2024-03-24T06:12:55.541Z,45.00
2024-03-24T06:13:26.293Z,45.00
2024-03-24T06:13:56.844Z,45.00
2024-03-24T06:14:27.402Z,45.33
2024-03-24T06:14:58.001Z,46.00
2024-03-24T06:15:28.610Z,46.00
2024-03-24T06:16:00.849Z,46.00
2024-03-24T06:16:31.439Z,46.00
2024-03-24T06:17:02.161Z,45.00
2024-03-24T06:17:32.731Z,45.00
2024-03-24T06:18:07.083Z,45.00
2024-03-24T06:18:37.655Z,44.00
2024-03-24T06:19:09.799Z,44.00
2024-03-24T06:19:41.568Z,44.00
2024-03-24T06:20:12.470Z,49.00
2024-03-24T06:20:43.048Z,62.33
2024-03-24T06:21:13.647Z,64.67
2024-03-24T06:21:44.213Z,68.00
2024-03-24T06:22:14.915Z,70.67
2024-03-24T06:22:46.517Z,69.00
2024-03-24T06:23:17.126Z,65.00
2024-03-24T06:23:52.109Z,63.33
2024-03-24T06:24:23.693Z,62.00
2024-03-24T06:24:54.257Z,61.00
2024-03-24T06:25:26.513Z,60.00
2024-03-24T06:25:58.103Z,57.00
2024-03-24T06:26:28.666Z,53.00
2024-03-24T06:27:00.360Z,46.33
2024-03-24T06:27:30.984Z,39.67
2024-03-24T06:28:01.912Z,34.33
2024-03-24T06:28:32.490Z,32.33
2024-03-24T06:29:03.127Z,32.00
2024-03-24T06:29:33.689Z,31.33
2024-03-24T06:30:04.509Z,32.00
2024-03-24T06:30:35.102Z,32.33
2024-03-24T06:31:05.892Z,33.00
2024-03-24T06:31:37.094Z,34.00
2024-03-24T06:32:07.675Z,34.00
2024-03-24T06:32:38.237Z,34.00
2024-03-24T06:33:08.792Z,34.00
2024-03-24T06:33:39.444Z,34.00
2024-03-24T06:34:09.999Z,33.33
2024-03-24T06:34:40.568Z,33.00
2024-03-24T06:35:12.160Z,33.00
2024-03-24T06:35:44.201Z,33.00
2024-03-24T06:36:14.766Z,33.00
2024-03-24T06:36:45.332Z,33.00
2024-03-24T06:37:17.018Z,33.33
2024-03-24T06:37:48.121Z,34.00
2024-03-24T06:38:19.134Z,34.00
2024-03-24T06:38:50.832Z,34.00
2024-03-24T06:39:21.414Z,34.00
2024-03-24T06:39:51.967Z,35.00
2024-03-24T06:40:25.362Z,35.00